sensor_id;sensor_type;location;lat;lon;timestamp;P1;durP1;ratioP1;P2;durP2;ratioP2
56593;SDS011;42474;51.660;5.824;2023-06-26T00:02:42;10.91;;;9.63;;
56593;SDS011;42474;51.660;5.824;2023-06-26T00:06:42;11.04;;;9.23;;
56593;SDS011;42474;51.660;5.824;2023-06-26T00:10:41;9.34;;;8.45;;
56593;SDS011;42474;51.660;5.824;2023-06-26T00:14:42;9.78;;;8.81;;
56593;SDS011;42474;51.660;5.824;2023-06-26T00:18:42;9.75;;;8.23;;
56593;SDS011;42474;51.660;5.824;2023-06-26T00:22:41;9.4;;;8.17;;
56593;SDS011;42474;51.660;5.824;2023-06-26T00:26:42;10.78;;;8.75;;
56593;SDS011;42474;51.660;5.824;2023-06-26T00:34:42;9.21;;;8.25;;
56593;SDS011;42474;51.660;5.824;2023-06-26T00:38:42;9.84;;;8.32;;
56593;SDS011;42474;51.660;5.824;2023-06-26T00:42:42;7.98;;;7.02;;
56593;SDS011;42474;51.660;5.824;2023-06-26T00:46:42;7.65;;;6.88;;
56593;SDS011;42474;51.660;5.824;2023-06-26T00:50:42;7.77;;;6.99;;
56593;SDS011;42474;51.660;5.824;2023-06-26T00:54:42;10.42;;;7.23;;
56593;SDS011;42474;51.660;5.824;2023-06-26T00:58:42;8.35;;;7.37;;
56593;SDS011;42474;51.660;5.824;2023-06-26T01:02:42;9.37;;;8.07;;
56593;SDS011;42474;51.660;5.824;2023-06-26T01:06:42;10.24;;;8.54;;
56593;SDS011;42474;51.660;5.824;2023-06-26T01:14:42;9.49;;;8.41;;
56593;SDS011;42474;51.660;5.824;2023-06-26T01:18:42;9.95;;;8.29;;
56593;SDS011;42474;51.660;5.824;2023-06-26T01:26:44;9.98;;;8.83;;
56593;SDS011;42474;51.660;5.824;2023-06-26T01:30:43;10;;;8.84;;
56593;SDS011;42474;51.660;5.824;2023-06-26T01:34:42;9.29;;;8.33;;
56593;SDS011;42474;51.660;5.824;2023-06-26T01:38:42;9.98;;;8.38;;
56593;SDS011;42474;51.660;5.824;2023-06-26T01:42:42;9.87;;;8.38;;
56593;SDS011;42474;51.660;5.824;2023-06-26T01:46:49;9.4;;;8.3;;
56593;SDS011;42474;51.660;5.824;2023-06-26T01:50:44;9.07;;;7.38;;
56593;SDS011;42474;51.660;5.824;2023-06-26T01:54:49;7.67;;;5.96;;
56593;SDS011;42474;51.660;5.824;2023-06-26T01:58:43;6.54;;;5.88;;
56593;SDS011;42474;51.660;5.824;2023-06-26T02:02:42;7.44;;;5.32;;
56593;SDS011;42474;51.660;5.824;2023-06-26T02:06:42;8.28;;;4.95;;
56593;SDS011;42474;51.660;5.824;2023-06-26T02:10:42;5.62;;;4.74;;
56593;SDS011;42474;51.660;5.824;2023-06-26T02:14:42;6.4;;;4.82;;
56593;SDS011;42474;51.660;5.824;2023-06-26T02:18:42;4.77;;;3.65;;
56593;SDS011;42474;51.660;5.824;2023-06-26T02:22:42;5.28;;;3.51;;
56593;SDS011;42474;51.660;5.824;2023-06-26T02:26:42;4.58;;;3.51;;
56593;SDS011;42474;51.660;5.824;2023-06-26T02:30:42;4.32;;;3.28;;
56593;SDS011;42474;51.660;5.824;2023-06-26T02:34:42;5.67;;;3.27;;
56593;SDS011;42474;51.660;5.824;2023-06-26T02:38:42;4.66;;;3.13;;
56593;SDS011;42474;51.660;5.824;2023-06-26T02:42:42;5.27;;;3.35;;
56593;SDS011;42474;51.660;5.824;2023-06-26T02:46:42;5.43;;;2.92;;
56593;SDS011;42474;51.660;5.824;2023-06-26T02:50:42;5.26;;;3.09;;
56593;SDS011;42474;51.660;5.824;2023-06-26T02:54:42;5.05;;;3.05;;
56593;SDS011;42474;51.660;5.824;2023-06-26T02:58:42;3.82;;;2.78;;
56593;SDS011;42474;51.660;5.824;2023-06-26T03:02:42;5.17;;;3.07;;
56593;SDS011;42474;51.660;5.824;2023-06-26T03:06:42;5.39;;;3.2;;
56593;SDS011;42474;51.660;5.824;2023-06-26T03:10:42;7.23;;;3.04;;
56593;SDS011;42474;51.660;5.824;2023-06-26T03:14:42;9.9;;;3.56;;
56593;SDS011;42474;51.660;5.824;2023-06-26T03:18:42;7.62;;;3.2;;
56593;SDS011;42474;51.660;5.824;2023-06-26T03:22:42;7.03;;;3.38;;
56593;SDS011;42474;51.660;5.824;2023-06-26T03:26:42;6.07;;;3.25;;
56593;SDS011;42474;51.660;5.824;2023-06-26T03:30:42;5.91;;;3.1;;
56593;SDS011;42474;51.660;5.824;2023-06-26T03:34:42;6.64;;;4.04;;
56593;SDS011;42474;51.660;5.824;2023-06-26T03:38:42;7.3;;;4.78;;
56593;SDS011;42474;51.660;5.824;2023-06-26T03:42:42;6.6;;;4.62;;
56593;SDS011;42474;51.660;5.824;2023-06-26T03:46:42;7.22;;;3.78;;
56593;SDS011;42474;51.660;5.824;2023-06-26T03:50:42;6.9;;;4.11;;
56593;SDS011;42474;51.660;5.824;2023-06-26T03:54:42;6.19;;;3.86;;
56593;SDS011;42474;51.660;5.824;2023-06-26T03:58:42;7.3;;;4.12;;
56593;SDS011;42474;51.660;5.824;2023-06-26T04:02:42;5.49;;;3.24;;
56593;SDS011;42474;51.660;5.824;2023-06-26T04:06:42;6.4;;;3.82;;
56593;SDS011;42474;51.660;5.824;2023-06-26T04:10:42;6.26;;;3.96;;
56593;SDS011;42474;51.660;5.824;2023-06-26T04:14:42;8.75;;;4.68;;
56593;SDS011;42474;51.660;5.824;2023-06-26T04:18:42;8.33;;;5.08;;
56593;SDS011;42474;51.660;5.824;2023-06-26T04:22:42;6.31;;;4.65;;
56593;SDS011;42474;51.660;5.824;2023-06-26T04:26:42;7.94;;;4.84;;
56593;SDS011;42474;51.660;5.824;2023-06-26T04:30:42;7.18;;;4.6;;
56593;SDS011;42474;51.660;5.824;2023-06-26T04:34:42;7.95;;;4.45;;
56593;SDS011;42474;51.660;5.824;2023-06-26T04:38:42;6.86;;;4.54;;
56593;SDS011;42474;51.660;5.824;2023-06-26T04:42:42;5.14;;;4.12;;
56593;SDS011;42474;51.660;5.824;2023-06-26T04:46:42;8.79;;;4.83;;
56593;SDS011;42474;51.660;5.824;2023-06-26T04:50:42;7.12;;;4.43;;
56593;SDS011;42474;51.660;5.824;2023-06-26T04:54:42;8.18;;;4.44;;
56593;SDS011;42474;51.660;5.824;2023-06-26T04:58:42;7.73;;;4.33;;
56593;SDS011;42474;51.660;5.824;2023-06-26T05:02:42;10.11;;;4.08;;
56593;SDS011;42474;51.660;5.824;2023-06-26T05:06:42;6.11;;;4.2;;
56593;SDS011;42474;51.660;5.824;2023-06-26T05:10:42;9.75;;;4.24;;
56593;SDS011;42474;51.660;5.824;2023-06-26T05:14:42;8.57;;;4.38;;
56593;SDS011;42474;51.660;5.824;2023-06-26T05:18:42;8.33;;;4.33;;
56593;SDS011;42474;51.660;5.824;2023-06-26T05:22:42;7.85;;;4.17;;
56593;SDS011;42474;51.660;5.824;2023-06-26T05:26:42;9.98;;;4.58;;
56593;SDS011;42474;51.660;5.824;2023-06-26T05:30:42;6.8;;;3.94;;
56593;SDS011;42474;51.660;5.824;2023-06-26T05:34:42;8.42;;;4.4;;
56593;SDS011;42474;51.660;5.824;2023-06-26T05:38:42;9.67;;;4.5;;
56593;SDS011;42474;51.660;5.824;2023-06-26T05:42:42;10.61;;;4.5;;
56593;SDS011;42474;51.660;5.824;2023-06-26T05:46:42;8.84;;;3.72;;
56593;SDS011;42474;51.660;5.824;2023-06-26T05:50:42;10.28;;;3.63;;
56593;SDS011;42474;51.660;5.824;2023-06-26T05:54:42;8.04;;;3.37;;
56593;SDS011;42474;51.660;5.824;2023-06-26T05:58:42;8.44;;;3.5;;
56593;SDS011;42474;51.660;5.824;2023-06-26T06:02:43;8.72;;;3.41;;
56593;SDS011;42474;51.660;5.824;2023-06-26T06:06:42;6.8;;;3.21;;
56593;SDS011;42474;51.660;5.824;2023-06-26T06:10:42;8.33;;;3.38;;
56593;SDS011;42474;51.660;5.824;2023-06-26T06:14:42;11.02;;;3.34;;
56593;SDS011;42474;51.660;5.824;2023-06-26T06:18:42;8.88;;;3.29;;
56593;SDS011;42474;51.660;5.824;2023-06-26T06:22:42;7.97;;;3.24;;
56593;SDS011;42474;51.660;5.824;2023-06-26T06:26:42;7.71;;;3.34;;
56593;SDS011;42474;51.660;5.824;2023-06-26T06:30:42;8.17;;;3.38;;
56593;SDS011;42474;51.660;5.824;2023-06-26T06:34:42;6.71;;;3.36;;
56593;SDS011;42474;51.660;5.824;2023-06-26T06:38:42;9.48;;;3.61;;
56593;SDS011;42474;51.660;5.824;2023-06-26T06:42:42;10.72;;;3.18;;
56593;SDS011;42474;51.660;5.824;2023-06-26T06:46:42;6.82;;;3.04;;
56593;SDS011;42474;51.660;5.824;2023-06-26T06:50:45;7.44;;;2.86;;
56593;SDS011;42474;51.660;5.824;2023-06-26T06:54:57;9.34;;;3.25;;
56593;SDS011;42474;51.660;5.824;2023-06-26T06:58:42;9.56;;;3.07;;
56593;SDS011;42474;51.660;5.824;2023-06-26T07:02:43;8.81;;;3.02;;
56593;SDS011;42474;51.660;5.824;2023-06-26T07:06:42;6.43;;;2.33;;
56593;SDS011;42474;51.660;5.824;2023-06-26T07:10:42;4.85;;;2.28;;
56593;SDS011;42474;51.660;5.824;2023-06-26T07:14:42;6.81;;;2.53;;
56593;SDS011;42474;51.660;5.824;2023-06-26T07:18:42;4.61;;;2.12;;
56593;SDS011;42474;51.660;5.824;2023-06-26T07:22:42;5.5;;;2.85;;
56593;SDS011;42474;51.660;5.824;2023-06-26T07:26:42;5.73;;;2.44;;
56593;SDS011;42474;51.660;5.824;2023-06-26T07:30:42;5.33;;;2.33;;
56593;SDS011;42474;51.660;5.824;2023-06-26T07:34:42;6.86;;;2.63;;
56593;SDS011;42474;51.660;5.824;2023-06-26T07:42:42;4.77;;;2.05;;
56593;SDS011;42474;51.660;5.824;2023-06-26T07:46:42;4.53;;;2.11;;
56593;SDS011;42474;51.660;5.824;2023-06-26T07:50:42;6.01;;;2.42;;
56593;SDS011;42474;51.660;5.824;2023-06-26T07:54:42;5.72;;;2.66;;
56593;SDS011;42474;51.660;5.824;2023-06-26T07:58:42;6.48;;;2.76;;
56593;SDS011;42474;51.660;5.824;2023-06-26T08:02:42;7.38;;;2.65;;
56593;SDS011;42474;51.660;5.824;2023-06-26T08:06:43;4.28;;;2.31;;
56593;SDS011;42474;51.660;5.824;2023-06-26T08:10:42;6.38;;;2.49;;
56593;SDS011;42474;51.660;5.824;2023-06-26T08:14:42;5.4;;;2.47;;
56593;SDS011;42474;51.660;5.824;2023-06-26T08:22:42;8.81;;;4.37;;
56593;SDS011;42474;51.660;5.824;2023-06-26T08:26:42;6.14;;;2.86;;
56593;SDS011;42474;51.660;5.824;2023-06-26T08:34:42;8.23;;;2.88;;
56593;SDS011;42474;51.660;5.824;2023-06-26T08:38:42;4.95;;;3.05;;
56593;SDS011;42474;51.660;5.824;2023-06-26T08:46:43;5.22;;;2.34;;
56593;SDS011;42474;51.660;5.824;2023-06-26T08:50:43;9.23;;;3.72;;
56593;SDS011;42474;51.660;5.824;2023-06-26T08:58:42;3.94;;;1.89;;
56593;SDS011;42474;51.660;5.824;2023-06-26T09:02:42;3.75;;;1.81;;
56593;SDS011;42474;51.660;5.824;2023-06-26T09:10:42;4.01;;;1.35;;
56593;SDS011;42474;51.660;5.824;2023-06-26T09:14:42;2.94;;;1.16;;
56593;SDS011;42474;51.660;5.824;2023-06-26T09:22:43;1.97;;;0.95;;
56593;SDS011;42474;51.660;5.824;2023-06-26T09:30:42;1.88;;;0.93;;
56593;SDS011;42474;51.660;5.824;2023-06-26T09:38:42;3.47;;;0.89;;
56593;SDS011;42474;51.660;5.824;2023-06-26T09:46:45;2.12;;;1.01;;
56593;SDS011;42474;51.660;5.824;2023-06-26T09:50:42;2.88;;;0.93;;
56593;SDS011;42474;51.660;5.824;2023-06-26T09:58:42;2.98;;;0.98;;
56593;SDS011;42474;51.660;5.824;2023-06-26T10:06:45;1.61;;;0.71;;
56593;SDS011;42474;51.660;5.824;2023-06-26T10:14:42;2.4;;;0.78;;
56593;SDS011;42474;51.660;5.824;2023-06-26T10:22:45;2.77;;;0.75;;
56593;SDS011;42474;51.660;5.824;2023-06-26T10:30:44;2.6;;;0.91;;
56593;SDS011;42474;51.660;5.824;2023-06-26T10:38:50;3.46;;;0.79;;
56593;SDS011;42474;51.660;5.824;2023-06-26T10:46:50;2.05;;;0.85;;
56593;SDS011;42474;51.660;5.824;2023-06-26T10:54:42;2.17;;;0.73;;
56593;SDS011;42474;51.660;5.824;2023-06-26T10:58:42;3.85;;;0.92;;
56593;SDS011;42474;51.660;5.824;2023-06-26T11:06:45;1.46;;;0.6;;
56593;SDS011;42474;51.660;5.824;2023-06-26T11:14:45;2.87;;;0.94;;
56593;SDS011;42474;51.660;5.824;2023-06-26T11:22:42;1.84;;;0.66;;
56593;SDS011;42474;51.660;5.824;2023-06-26T11:30:42;2.36;;;0.73;;
56593;SDS011;42474;51.660;5.824;2023-06-26T11:38:42;2.77;;;0.7;;
56593;SDS011;42474;51.660;5.824;2023-06-26T11:46:42;1.47;;;0.59;;
56593;SDS011;42474;51.660;5.824;2023-06-26T11:50:42;1.64;;;0.72;;
56593;SDS011;42474;51.660;5.824;2023-06-26T11:58:58;1.98;;;0.73;;
56593;SDS011;42474;51.660;5.824;2023-06-26T12:06:46;1.27;;;0.58;;
56593;SDS011;42474;51.660;5.824;2023-06-26T12:14:42;1.4;;;0.56;;
56593;SDS011;42474;51.660;5.824;2023-06-26T12:18:42;2.12;;;0.8;;
56593;SDS011;42474;51.660;5.824;2023-06-26T12:26:42;1.89;;;0.62;;
56593;SDS011;42474;51.660;5.824;2023-06-26T12:30:46;2.15;;;0.84;;
56593;SDS011;42474;51.660;5.824;2023-06-26T12:38:45;2.51;;;0.7;;
56593;SDS011;42474;51.660;5.824;2023-06-26T12:46:42;2.17;;;0.64;;
56593;SDS011;42474;51.660;5.824;2023-06-26T12:54:43;1.9;;;0.83;;
56593;SDS011;42474;51.660;5.824;2023-06-26T13:02:42;1.59;;;0.83;;
56593;SDS011;42474;51.660;5.824;2023-06-26T13:06:42;1.23;;;0.63;;
56593;SDS011;42474;51.660;5.824;2023-06-26T13:10:42;2.57;;;0.88;;
56593;SDS011;42474;51.660;5.824;2023-06-26T13:14:42;3.42;;;1.21;;
56593;SDS011;42474;51.660;5.824;2023-06-26T13:18:42;2.16;;;1.06;;
56593;SDS011;42474;51.660;5.824;2023-06-26T13:26:42;2.54;;;1.13;;
56593;SDS011;42474;51.660;5.824;2023-06-26T13:30:42;2.46;;;1.14;;
56593;SDS011;42474;51.660;5.824;2023-06-26T13:38:42;2.8;;;1;;
56593;SDS011;42474;51.660;5.824;2023-06-26T13:46:42;2.21;;;0.95;;
56593;SDS011;42474;51.660;5.824;2023-06-26T13:54:42;1.66;;;0.73;;
56593;SDS011;42474;51.660;5.824;2023-06-26T14:02:42;2.11;;;0.84;;
56593;SDS011;42474;51.660;5.824;2023-06-26T14:10:42;2.08;;;0.88;;
56593;SDS011;42474;51.660;5.824;2023-06-26T14:18:42;3.1;;;0.92;;
56593;SDS011;42474;51.660;5.824;2023-06-26T14:22:43;2.6;;;1.08;;
56593;SDS011;42474;51.660;5.824;2023-06-26T14:30:42;3.27;;;1.03;;
56593;SDS011;42474;51.660;5.824;2023-06-26T14:38:42;1.41;;;0.74;;
56593;SDS011;42474;51.660;5.824;2023-06-26T14:46:42;2.9;;;0.8;;
56593;SDS011;42474;51.660;5.824;2023-06-26T14:54:42;3.02;;;0.86;;
56593;SDS011;42474;51.660;5.824;2023-06-26T15:02:42;2.68;;;0.88;;
56593;SDS011;42474;51.660;5.824;2023-06-26T15:10:42;3.33;;;1.15;;
56593;SDS011;42474;51.660;5.824;2023-06-26T15:14:42;3.4;;;1.11;;
56593;SDS011;42474;51.660;5.824;2023-06-26T15:22:42;2.12;;;1.03;;
56593;SDS011;42474;51.660;5.824;2023-06-26T15:30:42;1.57;;;0.88;;
56593;SDS011;42474;51.660;5.824;2023-06-26T15:38:42;1.97;;;0.91;;
56593;SDS011;42474;51.660;5.824;2023-06-26T15:42:46;1.4;;;0.81;;
56593;SDS011;42474;51.660;5.824;2023-06-26T15:50:42;2.37;;;0.99;;
56593;SDS011;42474;51.660;5.824;2023-06-26T15:54:42;1.36;;;0.76;;
56593;SDS011;42474;51.660;5.824;2023-06-26T15:58:42;2.05;;;0.93;;
56593;SDS011;42474;51.660;5.824;2023-06-26T16:06:42;3.36;;;0.7;;
56593;SDS011;42474;51.660;5.824;2023-06-26T16:10:42;2.93;;;0.84;;
56593;SDS011;42474;51.660;5.824;2023-06-26T16:14:42;2.01;;;0.91;;
56593;SDS011;42474;51.660;5.824;2023-06-26T16:22:42;1.9;;;0.71;;
56593;SDS011;42474;51.660;5.824;2023-06-26T16:30:42;2.61;;;0.91;;
56593;SDS011;42474;51.660;5.824;2023-06-26T16:38:42;1.91;;;0.81;;
56593;SDS011;42474;51.660;5.824;2023-06-26T16:42:42;5.53;;;1.24;;
56593;SDS011;42474;51.660;5.824;2023-06-26T16:46:42;2.94;;;0.85;;
56593;SDS011;42474;51.660;5.824;2023-06-26T16:50:42;1.39;;;0.74;;
56593;SDS011;42474;51.660;5.824;2023-06-26T16:54:42;1.74;;;0.65;;
56593;SDS011;42474;51.660;5.824;2023-06-26T16:58:44;1.74;;;0.81;;
56593;SDS011;42474;51.660;5.824;2023-06-26T17:02:43;2.31;;;0.81;;
56593;SDS011;42474;51.660;5.824;2023-06-26T17:06:42;1.77;;;0.81;;
56593;SDS011;42474;51.660;5.824;2023-06-26T17:10:42;2.27;;;0.81;;
56593;SDS011;42474;51.660;5.824;2023-06-26T17:14:42;1.44;;;0.66;;
56593;SDS011;42474;51.660;5.824;2023-06-26T17:18:42;1.64;;;0.58;;
56593;SDS011;42474;51.660;5.824;2023-06-26T17:22:42;2.16;;;0.92;;
56593;SDS011;42474;51.660;5.824;2023-06-26T17:26:43;1.57;;;0.78;;
56593;SDS011;42474;51.660;5.824;2023-06-26T17:30:42;1.62;;;0.74;;
56593;SDS011;42474;51.660;5.824;2023-06-26T17:34:42;3.32;;;0.96;;
56593;SDS011;42474;51.660;5.824;2023-06-26T17:38:42;1.52;;;0.86;;
56593;SDS011;42474;51.660;5.824;2023-06-26T17:42:42;1.84;;;0.75;;
56593;SDS011;42474;51.660;5.824;2023-06-26T17:46:42;1.74;;;0.93;;
56593;SDS011;42474;51.660;5.824;2023-06-26T17:50:42;3.37;;;0.93;;
56593;SDS011;42474;51.660;5.824;2023-06-26T17:54:42;1.36;;;0.68;;
56593;SDS011;42474;51.660;5.824;2023-06-26T17:58:42;2.09;;;0.73;;
56593;SDS011;42474;51.660;5.824;2023-06-26T18:02:42;2.48;;;0.7;;
56593;SDS011;42474;51.660;5.824;2023-06-26T18:06:42;1.42;;;0.77;;
56593;SDS011;42474;51.660;5.824;2023-06-26T18:10:42;2.43;;;0.75;;
56593;SDS011;42474;51.660;5.824;2023-06-26T18:14:42;2.93;;;0.78;;
56593;SDS011;42474;51.660;5.824;2023-06-26T18:22:47;1.29;;;0.84;;
56593;SDS011;42474;51.660;5.824;2023-06-26T18:26:42;1.81;;;1;;
56593;SDS011;42474;51.660;5.824;2023-06-26T18:34:42;1.77;;;0.8;;
56593;SDS011;42474;51.660;5.824;2023-06-26T18:38:43;1.62;;;0.82;;
56593;SDS011;42474;51.660;5.824;2023-06-26T18:42:42;2.59;;;0.95;;
56593;SDS011;42474;51.660;5.824;2023-06-26T18:46:42;1.96;;;0.78;;
56593;SDS011;42474;51.660;5.824;2023-06-26T18:50:42;2.28;;;0.82;;
56593;SDS011;42474;51.660;5.824;2023-06-26T18:54:42;1.82;;;0.95;;
56593;SDS011;42474;51.660;5.824;2023-06-26T18:58:42;1.62;;;0.88;;
56593;SDS011;42474;51.660;5.824;2023-06-26T19:02:42;1.71;;;0.83;;
56593;SDS011;42474;51.660;5.824;2023-06-26T19:06:42;2.01;;;0.83;;
56593;SDS011;42474;51.660;5.824;2023-06-26T19:10:42;1.31;;;0.78;;
56593;SDS011;42474;51.660;5.824;2023-06-26T19:14:42;1.43;;;0.77;;
56593;SDS011;42474;51.660;5.824;2023-06-26T19:18:43;3.08;;;0.98;;
56593;SDS011;42474;51.660;5.824;2023-06-26T19:26:42;2.51;;;0.98;;
56593;SDS011;42474;51.660;5.824;2023-06-26T19:30:42;2.81;;;1.24;;
56593;SDS011;42474;51.660;5.824;2023-06-26T19:34:42;2.22;;;1.04;;
56593;SDS011;42474;51.660;5.824;2023-06-26T19:38:42;2.14;;;1.07;;
56593;SDS011;42474;51.660;5.824;2023-06-26T19:42:42;2.61;;;1.16;;
56593;SDS011;42474;51.660;5.824;2023-06-26T19:46:42;3.04;;;1.26;;
56593;SDS011;42474;51.660;5.824;2023-06-26T19:50:42;1.49;;;1;;
56593;SDS011;42474;51.660;5.824;2023-06-26T19:54:42;2.04;;;1.27;;
56593;SDS011;42474;51.660;5.824;2023-06-26T19:58:42;1.87;;;1.1;;
56593;SDS011;42474;51.660;5.824;2023-06-26T20:02:42;2.9;;;1.07;;
56593;SDS011;42474;51.660;5.824;2023-06-26T20:06:42;2.51;;;1.26;;
56593;SDS011;42474;51.660;5.824;2023-06-26T20:10:42;3.14;;;1.26;;
56593;SDS011;42474;51.660;5.824;2023-06-26T20:14:42;2.55;;;1.21;;
56593;SDS011;42474;51.660;5.824;2023-06-26T20:18:42;2.6;;;1.1;;
56593;SDS011;42474;51.660;5.824;2023-06-26T20:22:42;2.43;;;1.13;;
56593;SDS011;42474;51.660;5.824;2023-06-26T20:26:43;3.15;;;1.25;;
56593;SDS011;42474;51.660;5.824;2023-06-26T20:30:42;3.97;;;1.1;;
56593;SDS011;42474;51.660;5.824;2023-06-26T20:34:42;1.74;;;1.09;;
56593;SDS011;42474;51.660;5.824;2023-06-26T20:38:42;3.06;;;1.32;;
56593;SDS011;42474;51.660;5.824;2023-06-26T20:46:43;1.74;;;1.18;;
56593;SDS011;42474;51.660;5.824;2023-06-26T20:50:43;1.83;;;1.29;;
56593;SDS011;42474;51.660;5.824;2023-06-26T20:54:43;2.58;;;1.61;;
56593;SDS011;42474;51.660;5.824;2023-06-26T20:58:42;4.22;;;1.55;;
56593;SDS011;42474;51.660;5.824;2023-06-26T21:02:42;3.92;;;1.79;;
56593;SDS011;42474;51.660;5.824;2023-06-26T21:06:42;2.11;;;1.66;;
56593;SDS011;42474;51.660;5.824;2023-06-26T21:10:42;2.88;;;1.76;;
56593;SDS011;42474;51.660;5.824;2023-06-26T21:14:42;2.3;;;1.37;;
56593;SDS011;42474;51.660;5.824;2023-06-26T21:18:42;2.54;;;1.59;;
56593;SDS011;42474;51.660;5.824;2023-06-26T21:22:42;3.07;;;1.58;;
56593;SDS011;42474;51.660;5.824;2023-06-26T21:26:42;3.47;;;1.68;;
56593;SDS011;42474;51.660;5.824;2023-06-26T21:30:42;3.13;;;1.83;;
56593;SDS011;42474;51.660;5.824;2023-06-26T21:34:42;4.06;;;1.57;;
56593;SDS011;42474;51.660;5.824;2023-06-26T21:38:43;2.21;;;1.58;;
56593;SDS011;42474;51.660;5.824;2023-06-26T21:42:42;4.7;;;2.01;;
56593;SDS011;42474;51.660;5.824;2023-06-26T21:46:42;2.95;;;1.77;;
56593;SDS011;42474;51.660;5.824;2023-06-26T21:50:42;3.22;;;1.98;;
56593;SDS011;42474;51.660;5.824;2023-06-26T21:54:42;4.68;;;2.17;;
56593;SDS011;42474;51.660;5.824;2023-06-26T21:58:42;4.86;;;2.46;;
56593;SDS011;42474;51.660;5.824;2023-06-26T22:02:42;3.93;;;2.41;;
56593;SDS011;42474;51.660;5.824;2023-06-26T22:06:42;3.22;;;2.16;;
56593;SDS011;42474;51.660;5.824;2023-06-26T22:10:42;3.64;;;2.23;;
56593;SDS011;42474;51.660;5.824;2023-06-26T22:14:42;3.86;;;2.11;;
56593;SDS011;42474;51.660;5.824;2023-06-26T22:18:42;2.84;;;2.15;;
56593;SDS011;42474;51.660;5.824;2023-06-26T22:22:43;4.77;;;2.41;;
56593;SDS011;42474;51.660;5.824;2023-06-26T22:26:42;4.38;;;2.15;;
56593;SDS011;42474;51.660;5.824;2023-06-26T22:30:42;3.89;;;2.28;;
56593;SDS011;42474;51.660;5.824;2023-06-26T22:34:42;4.72;;;2.51;;
56593;SDS011;42474;51.660;5.824;2023-06-26T22:38:42;8.26;;;2.53;;
56593;SDS011;42474;51.660;5.824;2023-06-26T22:42:42;3.86;;;2.62;;
56593;SDS011;42474;51.660;5.824;2023-06-26T22:46:42;3.79;;;2.23;;
56593;SDS011;42474;51.660;5.824;2023-06-26T22:50:42;3.65;;;2.19;;
56593;SDS011;42474;51.660;5.824;2023-06-26T22:54:42;4.3;;;2.65;;
56593;SDS011;42474;51.660;5.824;2023-06-26T22:58:42;4;;;2.72;;
56593;SDS011;42474;51.660;5.824;2023-06-26T23:02:42;4.71;;;2.95;;
56593;SDS011;42474;51.660;5.824;2023-06-26T23:06:42;3.37;;;2.73;;
56593;SDS011;42474;51.660;5.824;2023-06-26T23:10:42;4.53;;;2.68;;
56593;SDS011;42474;51.660;5.824;2023-06-26T23:18:42;9.03;;;3.06;;
56593;SDS011;42474;51.660;5.824;2023-06-26T23:22:42;3.86;;;2.97;;
56593;SDS011;42474;51.660;5.824;2023-06-26T23:26:42;4.17;;;2.98;;
56593;SDS011;42474;51.660;5.824;2023-06-26T23:30:42;10.35;;;4.43;;
56593;SDS011;42474;51.660;5.824;2023-06-26T23:34:42;4.68;;;3.15;;
56593;SDS011;42474;51.660;5.824;2023-06-26T23:38:42;4.94;;;3.06;;
56593;SDS011;42474;51.660;5.824;2023-06-26T23:42:42;5.44;;;2.97;;
56593;SDS011;42474;51.660;5.824;2023-06-26T23:46:42;4.07;;;2.97;;
56593;SDS011;42474;51.660;5.824;2023-06-26T23:50:42;4.02;;;2.82;;
56593;SDS011;42474;51.660;5.824;2023-06-26T23:54:42;4.26;;;2.77;;
56593;SDS011;42474;51.660;5.824;2023-06-26T23:58:42;5.83;;;2.91;;
